createdAt,value
2023-03-26T00:01:13.984Z,84.06
2023-03-26T00:03:40.903Z,82.90
2023-03-26T00:06:17.138Z,83.67
2023-03-26T00:08:46.934Z,82.74
2023-03-26T00:11:15.638Z,83.91
2023-03-26T00:13:43.945Z,83.39
2023-03-26T00:16:13.715Z,81.34
2023-03-26T00:18:43.987Z,80.93
2023-03-26T00:21:16.100Z,82.09
2023-03-26T00:23:43.297Z,80.26
2023-03-26T00:26:10.624Z,83.95
2023-03-26T00:28:40.387Z,83.23
2023-03-26T00:31:09.275Z,81.46
2023-03-26T00:33:40.643Z,83.65
2023-03-26T00:36:16.837Z,85.27
2023-03-26T00:38:44.610Z,83.36
2023-03-26T00:41:23.036Z,83.39
2023-03-26T00:43:57.080Z,83.07
2023-03-26T00:46:28.646Z,84.02
2023-03-26T00:48:58.793Z,82.29
2023-03-26T00:51:26.160Z,83.88
2023-03-26T00:53:53.017Z,82.43
2023-03-26T00:56:19.796Z,80.96
2023-03-26T00:58:47.549Z,78.48
2023-03-26T01:01:16.801Z,81.28
2023-03-26T01:03:57.079Z,82.41
2023-03-26T01:06:36.071Z,83.48
2023-03-26T01:09:10.750Z,83.08
2023-03-26T01:11:37.341Z,81.86
2023-03-26T01:14:10.349Z,81.69
2023-03-26T01:16:41.605Z,81.38
2023-03-26T01:19:38.601Z,83.47
2023-03-26T01:22:13.539Z,84.81
2023-03-26T01:24:40.914Z,83.68
2023-03-26T01:27:32.135Z,83.08
2023-03-26T01:30:07.841Z,81.86
2023-03-26T01:32:48.898Z,78.76
2023-03-26T01:35:27.948Z,83.05
2023-03-26T01:38:23.423Z,80.31
2023-03-26T01:41:11.675Z,80.95
2023-03-26T01:43:44.153Z,80.44
2023-03-26T01:46:11.748Z,79.43
2023-03-26T01:48:41.288Z,80.06
2023-03-26T01:51:08.607Z,80.33
2023-03-26T01:53:38.088Z,79.82
2023-03-26T01:56:13.745Z,80.97
2023-03-26T01:58:55.568Z,80.74
2023-03-26T02:01:30.090Z,83.46
2023-03-26T02:04:05.593Z,83.71
2023-03-26T02:06:43.509Z,85.32
2023-03-26T02:09:14.845Z,82.96
2023-03-26T02:11:41.496Z,82.68
2023-03-26T02:14:08.996Z,84.28
2023-03-26T02:16:35.600Z,83.28
2023-03-26T02:19:02.281Z,84.76
2023-03-26T02:21:28.822Z,86.05
2023-03-26T02:24:03.596Z,85.91
2023-03-26T02:26:32.421Z,83.39
2023-03-26T02:28:59.687Z,84.37
2023-03-26T02:31:26.468Z,84.10
2023-03-26T02:33:55.621Z,86.17
2023-03-26T02:36:27.590Z,85.70
2023-03-26T02:38:58.380Z,84.76
2023-03-26T02:41:24.890Z,84.47
2023-03-26T02:43:51.652Z,81.67
2023-03-26T02:46:18.227Z,84.51
2023-03-26T02:48:44.709Z,80.83
2023-03-26T02:51:11.154Z,82.48
2023-03-26T02:53:39.468Z,83.38
2023-03-26T02:56:06.641Z,84.12
2023-03-26T02:58:33.422Z,83.95
2023-03-26T03:01:03.145Z,84.01
2023-03-26T03:03:29.998Z,83.33
2023-03-26T03:05:57.324Z,83.99
2023-03-26T03:08:26.433Z,84.34
2023-03-26T03:10:57.988Z,82.29
2023-03-26T03:13:24.467Z,82.83
2023-03-26T03:15:51.159Z,82.91
2023-03-26T03:18:17.617Z,80.06
2023-03-26T03:20:44.707Z,80.38
2023-03-26T03:23:11.264Z,80.26
2023-03-26T03:25:38.372Z,81.57
2023-03-26T03:28:05.024Z,81.48
2023-03-26T03:30:31.638Z,81.84
2023-03-26T03:32:58.501Z,81.13
2023-03-26T03:35:25.917Z,78.55
2023-03-26T03:37:52.378Z,80.06
2023-03-26T03:40:19.720Z,79.60
2023-03-26T03:42:47.214Z,80.34
2023-03-26T03:45:14.060Z,80.78
2023-03-26T03:47:40.876Z,79.41
2023-03-26T03:50:08.218Z,80.43
2023-03-26T03:52:34.681Z,81.11
2023-03-26T03:55:01.154Z,80.44
2023-03-26T03:57:28.592Z,79.94
2023-03-26T03:59:58.204Z,79.55
2023-03-26T04:02:34.637Z,80.67
2023-03-26T04:05:02.445Z,80.16
2023-03-26T04:07:33.310Z,80.88
2023-03-26T04:10:00.425Z,78.71
2023-03-26T04:12:28.324Z,78.39
2023-03-26T04:14:55.707Z,78.75
2023-03-26T04:17:22.764Z,79.76
2023-03-26T04:19:50.540Z,78.48
2023-03-26T04:22:18.412Z,80.83
2023-03-26T04:24:45.545Z,81.77
2023-03-26T04:27:17.911Z,82.88
2023-03-26T04:29:49.629Z,85.76
2023-03-26T04:32:29.900Z,84.99
2023-03-26T04:35:00.353Z,84.46
2023-03-26T04:37:40.081Z,83.53
2023-03-26T04:40:19.516Z,82.98
2023-03-26T04:42:46.526Z,81.05
2023-03-26T04:45:14.792Z,80.74
2023-03-26T04:47:41.671Z,80.28
2023-03-26T04:50:10.117Z,81.58
2023-03-26T04:52:37.570Z,79.05
2023-03-26T04:55:07.551Z,77.88
2023-03-26T04:57:39.805Z,76.35
2023-03-26T05:00:15.320Z,76.44
2023-03-26T05:02:42.892Z,76.31
2023-03-26T05:05:10.191Z,76.75
2023-03-26T05:07:36.930Z,75.32
2023-03-26T05:10:04.560Z,75.12
2023-03-26T05:12:31.157Z,75.43
2023-03-26T05:14:57.616Z,75.16
2023-03-26T05:17:24.782Z,74.35
2023-03-26T05:19:52.079Z,74.13
2023-03-26T05:22:19.110Z,75.63
2023-03-26T05:24:45.566Z,73.47
2023-03-26T05:27:17.047Z,74.47
2023-03-26T05:29:43.694Z,74.97
2023-03-26T05:32:10.967Z,73.65
2023-03-26T05:34:39.228Z,73.93
2023-03-26T05:37:06.906Z,72.38
2023-03-26T05:39:33.649Z,72.69
2023-03-26T05:42:00.117Z,72.48
2023-03-26T05:44:26.799Z,71.87
2023-03-26T05:46:53.263Z,71.47
2023-03-26T05:49:19.721Z,71.23
2023-03-26T05:51:46.148Z,70.92
2023-03-26T05:54:12.606Z,69.29
2023-03-26T05:56:39.249Z,69.39
2023-03-26T05:59:06.764Z,71.19
2023-03-26T06:01:33.263Z,69.27
2023-03-26T06:03:59.838Z,70.42
2023-03-26T06:06:26.464Z,69.89
2023-03-26T06:09:01.813Z,69.84
2023-03-26T06:11:29.785Z,68.12
2023-03-26T06:13:56.355Z,67.73
2023-03-26T06:16:27.242Z,67.38
2023-03-26T06:18:56.550Z,67.51
2023-03-26T06:21:27.168Z,68.01
2023-03-26T06:23:54.059Z,67.62
2023-03-26T06:26:20.812Z,67.63
2023-03-26T06:28:47.744Z,66.37
2023-03-26T06:31:14.266Z,68.19
2023-03-26T06:33:40.784Z,67.62
2023-03-26T06:36:07.604Z,65.76
2023-03-26T06:38:34.226Z,66.88
2023-03-26T06:41:05.475Z,67.49
2023-03-26T06:43:33.817Z,66.79
2023-03-26T06:46:04.351Z,67.49
2023-03-26T06:48:31.319Z,66.47
2023-03-26T06:50:58.129Z,66.15
2023-03-26T06:53:24.649Z,66.20
2023-03-26T06:55:53.008Z,66.51
2023-03-26T06:58:19.548Z,66.68
2023-03-26T07:00:46.795Z,65.90
2023-03-26T07:03:13.324Z,66.44
2023-03-26T07:05:42.952Z,67.13
2023-03-26T07:08:09.396Z,64.93
2023-03-26T07:10:35.846Z,65.41
2023-03-26T07:13:02.323Z,65.04
2023-03-26T07:15:29.072Z,63.89
2023-03-26T07:17:56.396Z,65.10
2023-03-26T07:20:23.652Z,63.76
2023-03-26T07:22:50.600Z,64.10
2023-03-26T07:25:18.262Z,64.25
2023-03-26T07:28:24.319Z,63.41
2023-03-26T07:31:21.495Z,62.52
2023-03-26T07:34:12.051Z,63.74
2023-03-26T07:37:05.619Z,63.74
2023-03-26T07:39:44.221Z,62.85
2023-03-26T07:42:34.545Z,62.26
2023-03-26T07:45:24.774Z,62.79
2023-03-26T07:47:53.551Z,62.67
2023-03-26T07:50:23.467Z,62.18
2023-03-26T07:52:50.302Z,61.30
2023-03-26T07:55:17.342Z,59.64
2023-03-26T07:57:49.849Z,61.46
2023-03-26T08:00:22.802Z,60.95
2023-03-26T08:04:24.029Z,61.06
2023-03-26T08:07:01.133Z,60.76
2023-03-26T08:09:55.826Z,58.70
2023-03-26T08:12:36.588Z,58.38
2023-03-26T08:15:17.890Z,57.53
2023-03-26T08:18:00.330Z,58.43
2023-03-26T08:20:53.930Z,58.89
2023-03-26T08:23:30.861Z,58.63
2023-03-26T08:26:02.642Z,58.92
2023-03-26T08:28:38.550Z,59.00
2023-03-26T08:31:05.987Z,58.11
2023-03-26T08:33:36.020Z,58.32
2023-03-26T08:36:03.914Z,57.75
2023-03-26T08:38:30.405Z,56.19
2023-03-26T08:41:12.132Z,56.69
2023-03-26T08:43:57.521Z,55.88
2023-03-26T08:46:57.991Z,56.05
2023-03-26T08:49:30.603Z,56.44
2023-03-26T08:52:17.274Z,55.76
2023-03-26T08:54:57.282Z,57.40
2023-03-26T08:57:57.481Z,55.66
2023-03-26T09:00:41.907Z,54.46
2023-03-26T09:03:43.664Z,52.71
2023-03-26T09:06:42.700Z,54.98
2023-03-26T09:09:18.621Z,55.68
2023-03-26T09:12:44.570Z,55.28
2023-03-26T09:15:36.220Z,55.25
2023-03-26T09:18:06.155Z,53.02
2023-03-26T09:21:10.627Z,54.84
2023-03-26T09:24:14.544Z,52.70
2023-03-26T09:26:41.015Z,52.07
2023-03-26T09:29:19.619Z,55.02
2023-03-26T09:31:58.432Z,52.12
2023-03-26T09:34:47.421Z,53.50
2023-03-26T09:37:57.297Z,53.48
2023-03-26T09:40:53.307Z,54.02
2023-03-26T09:43:42.374Z,53.83
2023-03-26T09:46:40.533Z,52.92
2023-03-26T09:49:13.893Z,51.94
2023-03-26T09:51:55.547Z,51.73
2023-03-26T09:54:37.216Z,51.30
2023-03-26T09:57:09.077Z,50.68
2023-03-26T09:59:38.525Z,51.13
2023-03-26T10:02:45.447Z,50.85
2023-03-26T10:05:20.194Z,51.15
2023-03-26T10:07:46.608Z,48.97
2023-03-26T10:10:37.938Z,50.58
2023-03-26T10:13:30.990Z,49.73
2023-03-26T10:16:02.678Z,52.23
2023-03-26T10:18:48.890Z,51.64
2023-03-26T10:21:37.357Z,51.46
2023-03-26T10:24:10.187Z,50.39
2023-03-26T10:27:09.174Z,49.88
2023-03-26T10:29:43.126Z,48.34
2023-03-26T10:32:21.979Z,49.21
2023-03-26T10:35:20.561Z,53.48
2023-03-26T10:38:14.121Z,53.72
2023-03-26T10:40:43.762Z,53.43
2023-03-26T10:43:57.676Z,51.77
2023-03-26T10:46:50.674Z,51.18
2023-03-26T10:49:27.221Z,50.25
2023-03-26T10:51:59.771Z,49.17
2023-03-26T10:54:44.597Z,48.33
2023-03-26T10:57:20.906Z,48.89
2023-03-26T10:59:47.393Z,48.30
2023-03-26T11:02:30.721Z,45.52
2023-03-26T11:05:00.665Z,46.70
2023-03-26T11:07:39.299Z,48.38
2023-03-26T11:10:26.181Z,47.08
2023-03-26T11:13:14.652Z,48.16
2023-03-26T11:15:58.971Z,47.51
2023-03-26T11:18:36.636Z,49.49
2023-03-26T11:21:37.889Z,49.89
2023-03-26T11:24:26.097Z,50.37
2023-03-26T11:27:26.191Z,47.57
2023-03-26T11:29:54.085Z,47.36
2023-03-26T11:32:22.357Z,48.62
2023-03-26T11:34:55.113Z,48.22
2023-03-26T11:37:34.147Z,47.89
2023-03-26T11:40:06.373Z,47.50
2023-03-26T11:42:32.975Z,50.44
2023-03-26T11:45:04.312Z,47.79
2023-03-26T11:47:36.128Z,46.83
2023-03-26T11:50:03.767Z,45.55
2023-03-26T11:52:30.506Z,46.88
2023-03-26T11:54:58.515Z,44.86
2023-03-26T11:57:33.324Z,44.44
2023-03-26T12:00:19.451Z,48.24
2023-03-26T12:02:47.619Z,48.42
2023-03-26T12:05:19.316Z,48.30
2023-03-26T12:07:47.480Z,48.49
2023-03-26T12:10:38.287Z,49.50
2023-03-26T12:13:35.483Z,49.00
2023-03-26T12:16:12.901Z,46.98
2023-03-26T12:18:41.180Z,45.77
2023-03-26T12:21:12.683Z,45.57
2023-03-26T12:23:56.151Z,48.27
2023-03-26T12:26:41.256Z,48.52
2023-03-26T12:29:13.489Z,49.80
2023-03-26T12:31:55.464Z,49.79
2023-03-26T12:34:24.078Z,49.57
2023-03-26T12:37:00.113Z,48.74
2023-03-26T12:40:09.177Z,45.61
2023-03-26T12:44:50.756Z,44.86
2023-03-26T12:45:15.700Z,44.84
2023-03-26T12:47:57.244Z,45.54
2023-03-26T12:50:54.888Z,45.84
2023-03-26T12:53:45.208Z,45.37
2023-03-26T12:56:38.583Z,46.42
2023-03-26T12:59:19.951Z,48.23
2023-03-26T13:01:46.425Z,49.29
2023-03-26T13:04:34.177Z,49.08
2023-03-26T13:07:15.338Z,48.05
2023-03-26T13:09:44.606Z,46.62
2023-03-26T13:12:46.317Z,48.56
2023-03-26T13:15:33.002Z,48.19
2023-03-26T13:17:59.515Z,48.24
2023-03-26T13:20:34.227Z,45.89
2023-03-26T13:23:42.678Z,45.58
2023-03-26T13:26:30.911Z,45.46
2023-03-26T13:29:18.580Z,47.44
2023-03-26T13:31:57.758Z,47.22
2023-03-26T13:34:42.364Z,47.62
2023-03-26T13:37:17.037Z,48.35
2023-03-26T13:40:05.001Z,47.19
2023-03-26T13:42:44.359Z,46.60
2023-03-26T13:45:43.185Z,47.68
2023-03-26T13:48:17.569Z,47.11
2023-03-26T13:50:52.323Z,46.94
2023-03-26T13:53:27.290Z,48.00
2023-03-26T13:55:57.712Z,47.21
2023-03-26T13:58:43.380Z,46.95
2023-03-26T14:01:19.410Z,46.15
2023-03-26T14:03:48.996Z,47.01
2023-03-26T14:06:42.272Z,46.74
2023-03-26T14:09:15.779Z,47.85
2023-03-26T14:11:57.905Z,46.56
2023-03-26T14:14:47.284Z,46.89
2023-03-26T14:17:20.750Z,46.87
2023-03-26T14:20:08.668Z,46.26
2023-03-26T14:22:57.180Z,46.76
2023-03-26T14:25:57.704Z,47.03
2023-03-26T14:29:12.663Z,46.55
2023-03-26T14:32:01.987Z,46.07
2023-03-26T14:34:56.657Z,46.81
2023-03-26T14:37:38.379Z,46.92
2023-03-26T14:40:16.835Z,47.76
2023-03-26T14:42:54.455Z,47.13
2023-03-26T14:45:47.603Z,46.71
2023-03-26T14:48:38.966Z,47.36
2023-03-26T14:51:36.826Z,47.37
2023-03-26T14:54:12.155Z,47.50
2023-03-26T14:57:03.000Z,47.12
2023-03-26T14:59:47.626Z,46.15
2023-03-26T15:02:41.851Z,46.70
2023-03-26T15:05:39.220Z,47.01
2023-03-26T15:08:43.092Z,47.12
2023-03-26T15:11:39.688Z,47.05
2023-03-26T15:14:28.025Z,46.32
2023-03-26T15:17:25.988Z,45.66
2023-03-26T15:20:05.513Z,46.95
2023-03-26T15:22:51.130Z,47.10
2023-03-26T15:25:38.856Z,46.95
2023-03-26T15:28:36.263Z,45.17
2023-03-26T15:31:10.896Z,46.17
2023-03-26T15:34:05.043Z,46.59
2023-03-26T15:40:07.899Z,47.26
2023-03-26T15:42:37.414Z,47.19
2023-03-26T15:45:35.502Z,47.12
2023-03-26T15:48:11.967Z,46.90
2023-03-26T15:51:01.632Z,46.45
2023-03-26T15:53:43.384Z,45.59
2023-03-26T15:56:18.537Z,46.29
2023-03-26T15:59:13.311Z,46.58
2023-03-26T16:02:04.506Z,46.54
2023-03-26T16:05:05.079Z,46.50
2023-03-26T16:07:47.423Z,47.06
2023-03-26T16:10:28.930Z,46.94
2023-03-26T16:13:14.243Z,48.11
2023-03-26T16:15:41.141Z,47.54
2023-03-26T16:18:12.019Z,46.77
2023-03-26T16:20:56.236Z,47.25
2023-03-26T16:23:55.160Z,46.26
2023-03-26T16:26:48.257Z,46.06
2023-03-26T16:29:16.164Z,44.64
2023-03-26T16:32:07.877Z,45.77
2023-03-26T16:34:50.702Z,46.59
2023-03-26T16:37:40.844Z,46.23
2023-03-26T16:40:16.743Z,46.34
2023-03-26T16:43:20.967Z,47.15
2023-03-26T16:46:08.454Z,48.01
2023-03-26T16:49:03.247Z,46.54
2023-03-26T16:51:54.376Z,47.30
2023-03-26T16:54:46.202Z,49.18
2023-03-26T16:57:27.257Z,49.70
2023-03-26T17:00:41.392Z,51.31
2023-03-26T17:03:47.764Z,50.73
2023-03-26T17:06:25.516Z,50.51
2023-03-26T17:09:08.807Z,50.83
2023-03-26T17:11:52.025Z,50.01
2023-03-26T17:14:18.691Z,50.05
2023-03-26T17:16:51.378Z,51.39
2023-03-26T17:19:31.035Z,50.83
2023-03-26T17:22:24.036Z,50.52
2023-03-26T17:24:59.451Z,51.76
2023-03-26T17:27:34.011Z,52.36
2023-03-26T17:30:11.503Z,51.81
2023-03-26T17:33:00.022Z,52.28
2023-03-26T17:35:45.554Z,51.80
2023-03-26T17:38:18.101Z,52.86
2023-03-26T17:40:46.508Z,53.22
2023-03-26T17:43:40.424Z,53.93
2023-03-26T17:46:21.002Z,53.35
2023-03-26T17:48:53.044Z,53.01
2023-03-26T17:51:40.226Z,53.11
2023-03-26T17:54:28.543Z,53.38
2023-03-26T17:56:56.472Z,52.51
2023-03-26T17:59:25.552Z,53.89
2023-03-26T18:01:56.200Z,54.15
2023-03-26T18:04:45.153Z,52.85
2023-03-26T18:07:41.897Z,54.13
2023-03-26T18:10:32.935Z,55.10
2023-03-26T18:13:09.682Z,54.70
2023-03-26T18:15:45.958Z,53.52
2023-03-26T18:18:36.860Z,54.20
2023-03-26T18:21:07.141Z,54.55
2023-03-26T18:23:39.956Z,53.33
2023-03-26T18:26:19.539Z,53.04
2023-03-26T18:28:53.099Z,53.76
2023-03-26T18:31:24.486Z,53.33
2023-03-26T18:33:55.988Z,54.27
2023-03-26T18:36:26.295Z,57.00
2023-03-26T18:38:58.238Z,57.48
2023-03-26T18:41:31.586Z,57.76
2023-03-26T18:44:02.624Z,57.84
2023-03-26T18:46:29.253Z,54.35
2023-03-26T18:48:56.923Z,52.14
2023-03-26T18:51:26.000Z,51.00
2023-03-26T18:53:56.109Z,50.33
2023-03-26T18:56:36.739Z,50.52
2023-03-26T18:59:19.264Z,49.92
2023-03-26T19:01:48.711Z,49.66
2023-03-26T19:04:15.669Z,49.78
2023-03-26T19:06:42.889Z,50.58
2023-03-26T19:09:30.432Z,50.29
2023-03-26T19:12:08.825Z,49.53
2023-03-26T19:14:51.592Z,50.31
2023-03-26T19:17:18.328Z,49.49
2023-03-26T19:19:45.398Z,49.35
2023-03-26T19:22:12.158Z,49.34
2023-03-26T19:24:40.691Z,48.75
2023-03-26T19:27:07.579Z,48.66
2023-03-26T19:29:35.670Z,48.54
2023-03-26T19:32:05.631Z,48.92
2023-03-26T19:34:35.199Z,48.69
2023-03-26T19:37:19.882Z,49.88
2023-03-26T19:39:51.546Z,50.10
2023-03-26T19:42:43.389Z,49.79
2023-03-26T19:45:25.922Z,49.87
2023-03-26T19:48:03.574Z,49.89
2023-03-26T19:50:42.572Z,49.87
2023-03-26T19:53:22.564Z,49.29
2023-03-26T19:55:58.837Z,48.78
2023-03-26T19:58:28.686Z,48.78
2023-03-26T20:00:56.371Z,49.36
2023-03-26T20:03:27.480Z,49.61
2023-03-26T20:05:54.174Z,48.48
2023-03-26T20:08:26.996Z,49.20
2023-03-26T20:10:55.689Z,49.68
2023-03-26T20:13:22.646Z,49.12
2023-03-26T20:16:05.586Z,48.62
2023-03-26T20:18:34.142Z,49.55
2023-03-26T20:21:00.865Z,49.69
2023-03-26T20:23:29.104Z,49.73
2023-03-26T20:25:56.384Z,50.84
2023-03-26T20:28:24.610Z,50.13
2023-03-26T20:30:54.591Z,49.91
2023-03-26T20:33:27.964Z,50.31
2023-03-26T20:35:55.807Z,50.70
2023-03-26T20:38:36.691Z,50.58
2023-03-26T20:41:06.362Z,50.64
2023-03-26T20:43:33.443Z,50.80
2023-03-26T20:46:00.777Z,50.92
2023-03-26T20:48:27.266Z,51.59
2023-03-26T20:50:54.122Z,50.42
2023-03-26T20:53:20.751Z,51.07
2023-03-26T20:55:47.974Z,51.53
2023-03-26T20:58:17.938Z,52.85
2023-03-26T21:01:00.703Z,52.51
2023-03-26T21:03:27.414Z,53.50
2023-03-26T21:05:53.923Z,52.42
2023-03-26T21:08:21.931Z,53.36
2023-03-26T21:10:48.882Z,53.16
2023-03-26T21:13:39.552Z,53.32
2023-03-26T21:16:06.575Z,54.51
2023-03-26T21:18:33.485Z,55.00
2023-03-26T21:21:21.579Z,55.19
2023-03-26T21:23:59.233Z,55.99
2023-03-26T21:26:50.766Z,56.60
2023-03-26T21:29:17.914Z,56.11
2023-03-26T21:31:45.138Z,56.67
2023-03-26T21:34:13.347Z,57.08
2023-03-26T21:36:40.374Z,56.54
2023-03-26T21:39:07.345Z,56.87
2023-03-26T21:42:05.354Z,56.15
2023-03-26T21:44:33.054Z,56.92
2023-03-26T21:47:00.119Z,57.06
2023-03-26T21:49:33.163Z,57.05
2023-03-26T21:52:00.508Z,57.65
2023-03-26T21:54:29.383Z,57.58
2023-03-26T21:57:23.940Z,58.65
2023-03-26T22:00:15.531Z,58.52
2023-03-26T22:03:21.623Z,58.75
2023-03-26T22:05:58.213Z,57.88
2023-03-26T22:08:31.486Z,58.00
2023-03-26T22:11:01.698Z,57.60
2023-03-26T22:13:28.381Z,57.71
2023-03-26T22:15:54.935Z,58.52
2023-03-26T22:18:21.751Z,58.92
2023-03-26T22:20:48.861Z,59.29
2023-03-26T22:23:16.982Z,59.31
2023-03-26T22:25:44.616Z,59.88
2023-03-26T22:28:11.555Z,58.37
2023-03-26T22:30:38.717Z,59.14
2023-03-26T22:33:06.432Z,59.07
2023-03-26T22:35:33.113Z,60.06
2023-03-26T22:38:00.470Z,61.06
2023-03-26T22:40:27.747Z,60.34
2023-03-26T22:42:54.231Z,59.87
2023-03-26T22:45:20.684Z,59.85
2023-03-26T22:47:47.254Z,59.87
2023-03-26T22:50:14.777Z,60.83
2023-03-26T22:52:41.580Z,59.96
2023-03-26T22:55:08.541Z,60.13
2023-03-26T22:57:35.036Z,59.66
2023-03-26T23:00:14.882Z,60.29
2023-03-26T23:02:42.279Z,60.31
2023-03-26T23:05:09.286Z,60.05
2023-03-26T23:07:35.827Z,60.58
2023-03-26T23:10:02.285Z,59.85
2023-03-26T23:12:28.736Z,60.98
2023-03-26T23:14:55.359Z,60.41
2023-03-26T23:17:22.369Z,59.52
2023-03-26T23:19:49.420Z,57.73
2023-03-26T23:22:16.726Z,58.80
2023-03-26T23:24:43.196Z,60.06
2023-03-26T23:27:10.788Z,60.23
2023-03-26T23:29:37.354Z,59.75
2023-03-26T23:32:03.989Z,60.96
2023-03-26T23:34:51.655Z,60.29
2023-03-26T23:37:23.191Z,61.08
2023-03-26T23:39:52.876Z,60.46
2023-03-26T23:42:29.166Z,60.71
2023-03-26T23:44:57.170Z,60.48
2023-03-26T23:47:24.160Z,60.65
2023-03-26T23:49:50.870Z,60.89
2023-03-26T23:52:17.435Z,60.50
2023-03-26T23:54:45.593Z,60.83
2023-03-26T23:57:12.231Z,61.01
2023-03-26T23:59:41.432Z,61.07
